sensor_id;sensor_type;location;lat;lon;timestamp;P1;durP1;ratioP1;P2;durP2;ratioP2
46613;SDS011;32338;50.430;6.806;2022-11-20T00:00:17;8.45;;;6.57;;
46613;SDS011;32338;50.430;6.806;2022-11-20T00:02:43;10.60;;;5.90;;
46613;SDS011;32338;50.430;6.806;2022-11-20T00:05:12;7.45;;;6.05;;
46613;SDS011;32338;50.430;6.806;2022-11-20T00:07:38;9.82;;;6.05;;
46613;SDS011;32338;50.430;6.806;2022-11-20T00:10:05;9.88;;;5.15;;
46613;SDS011;32338;50.430;6.806;2022-11-20T00:12:32;8.43;;;6.10;;
46613;SDS011;32338;50.430;6.806;2022-11-20T00:14:59;7.32;;;5.28;;
46613;SDS011;32338;50.430;6.806;2022-11-20T00:17:25;8.57;;;5.60;;
46613;SDS011;32338;50.430;6.806;2022-11-20T00:19:52;10.73;;;6.40;;
46613;SDS011;32338;50.430;6.806;2022-11-20T00:22:20;6.88;;;5.43;;
46613;SDS011;32338;50.430;6.806;2022-11-20T00:24:47;9.55;;;5.45;;
46613;SDS011;32338;50.430;6.806;2022-11-20T00:27:14;9.23;;;5.60;;
46613;SDS011;32338;50.430;6.806;2022-11-20T00:29:40;9.98;;;5.97;;
46613;SDS011;32338;50.430;6.806;2022-11-20T00:32:07;7.35;;;5.65;;
46613;SDS011;32338;50.430;6.806;2022-11-20T00:34:34;10.88;;;6.20;;
46613;SDS011;32338;50.430;6.806;2022-11-20T00:37:00;11.48;;;6.15;;
46613;SDS011;32338;50.430;6.806;2022-11-20T00:39:28;10.25;;;6.32;;
46613;SDS011;32338;50.430;6.806;2022-11-20T00:41:55;9.55;;;5.85;;
46613;SDS011;32338;50.430;6.806;2022-11-20T00:44:22;10.60;;;5.97;;
46613;SDS011;32338;50.430;6.806;2022-11-20T00:46:48;9.05;;;6.28;;
46613;SDS011;32338;50.430;6.806;2022-11-20T00:49:15;10.13;;;6.50;;
46613;SDS011;32338;50.430;6.806;2022-11-20T00:51:41;11.48;;;6.32;;
46613;SDS011;32338;50.430;6.806;2022-11-20T00:54:08;11.02;;;6.40;;
46613;SDS011;32338;50.430;6.806;2022-11-20T00:56:36;14.50;;;7.32;;
46613;SDS011;32338;50.430;6.806;2022-11-20T00:59:04;18.90;;;8.40;;
46613;SDS011;32338;50.430;6.806;2022-11-20T01:01:30;22.42;;;9.20;;
46613;SDS011;32338;50.430;6.806;2022-11-20T01:03:58;15.57;;;8.48;;
46613;SDS011;32338;50.430;6.806;2022-11-20T01:06:26;33.78;;;10.38;;
46613;SDS011;32338;50.430;6.806;2022-11-20T01:08:55;24.35;;;8.77;;
46613;SDS011;32338;50.430;6.806;2022-11-20T01:11:23;14.85;;;8.18;;
46613;SDS011;32338;50.430;6.806;2022-11-20T01:13:53;16.77;;;8.05;;
46613;SDS011;32338;50.430;6.806;2022-11-20T01:16:21;14.40;;;8.10;;
46613;SDS011;32338;50.430;6.806;2022-11-20T01:18:50;35.63;;;9.25;;
46613;SDS011;32338;50.430;6.806;2022-11-20T01:21:19;20.98;;;9.10;;
46613;SDS011;32338;50.430;6.806;2022-11-20T01:23:47;13.63;;;8.65;;
46613;SDS011;32338;50.430;6.806;2022-11-20T01:26:16;19.23;;;9.00;;
46613;SDS011;32338;50.430;6.806;2022-11-20T01:28:44;27.98;;;9.63;;
46613;SDS011;32338;50.430;6.806;2022-11-20T01:31:13;56.13;;;9.70;;
46613;SDS011;32338;50.430;6.806;2022-11-20T01:33:41;66.50;;;11.30;;
46613;SDS011;32338;50.430;6.806;2022-11-20T01:36:09;17.88;;;9.60;;
46613;SDS011;32338;50.430;6.806;2022-11-20T01:38:37;19.27;;;8.27;;
46613;SDS011;32338;50.430;6.806;2022-11-20T01:41:04;65.80;;;9.80;;
46613;SDS011;32338;50.430;6.806;2022-11-20T01:43:32;43.38;;;9.63;;
46613;SDS011;32338;50.430;6.806;2022-11-20T01:46:00;155.23;;;10.88;;
46613;SDS011;32338;50.430;6.806;2022-11-20T01:48:31;155.90;;;11.68;;
46613;SDS011;32338;50.430;6.806;2022-11-20T01:51:02;66.00;;;8.55;;
46613;SDS011;32338;50.430;6.806;2022-11-20T01:53:33;59.95;;;8.63;;
46613;SDS011;32338;50.430;6.806;2022-11-20T01:56:03;88.97;;;13.07;;
46613;SDS011;32338;50.430;6.806;2022-11-20T01:58:35;44.13;;;11.48;;
46613;SDS011;32338;50.430;6.806;2022-11-20T02:01:06;535.22;;;19.70;;
46613;SDS011;32338;50.430;6.806;2022-11-20T02:03:34;23.90;;;8.48;;
46613;SDS011;32338;50.430;6.806;2022-11-20T02:06:04;323.75;;;17.85;;
46613;SDS011;32338;50.430;6.806;2022-11-20T02:08:36;226.93;;;10.77;;
46613;SDS011;32338;50.430;6.806;2022-11-20T02:11:04;17.35;;;9.07;;
46613;SDS011;32338;50.430;6.806;2022-11-20T02:13:31;58.85;;;9.35;;
46613;SDS011;32338;50.430;6.806;2022-11-20T02:16:09;72.80;;;9.65;;
46613;SDS011;32338;50.430;6.806;2022-11-20T02:18:39;123.88;;;10.43;;
46613;SDS011;32338;50.430;6.806;2022-11-20T02:21:07;59.50;;;8.82;;
46613;SDS011;32338;50.430;6.806;2022-11-20T02:23:51;41.13;;;9.30;;
46613;SDS011;32338;50.430;6.806;2022-11-20T02:26:28;58.10;;;10.30;;
46613;SDS011;32338;50.430;6.806;2022-11-20T02:28:57;139.18;;;11.20;;
46613;SDS011;32338;50.430;6.806;2022-11-20T02:31:26;105.70;;;10.05;;
46613;SDS011;32338;50.430;6.806;2022-11-20T02:33:56;96.30;;;10.00;;
46613;SDS011;32338;50.430;6.806;2022-11-20T02:36:23;31.83;;;9.88;;
46613;SDS011;32338;50.430;6.806;2022-11-20T02:38:53;61.40;;;8.95;;
46613;SDS011;32338;50.430;6.806;2022-11-20T02:41:20;46.90;;;9.30;;
46613;SDS011;32338;50.430;6.806;2022-11-20T02:43:47;136.07;;;10.15;;
46613;SDS011;32338;50.430;6.806;2022-11-20T02:46:13;83.00;;;10.73;;
46613;SDS011;32338;50.430;6.806;2022-11-20T02:48:40;49.15;;;9.18;;
46613;SDS011;32338;50.430;6.806;2022-11-20T02:51:07;78.82;;;10.15;;
46613;SDS011;32338;50.430;6.806;2022-11-20T02:53:33;89.60;;;9.82;;
46613;SDS011;32338;50.430;6.806;2022-11-20T02:56:01;22.52;;;8.35;;
46613;SDS011;32338;50.430;6.806;2022-11-20T02:58:28;26.20;;;9.40;;
46613;SDS011;32338;50.430;6.806;2022-11-20T03:00:55;25.40;;;8.05;;
46613;SDS011;32338;50.430;6.806;2022-11-20T03:03:22;41.55;;;8.75;;
46613;SDS011;32338;50.430;6.806;2022-11-20T03:05:48;20.63;;;7.82;;
46613;SDS011;32338;50.430;6.806;2022-11-20T03:08:15;87.70;;;9.88;;
46613;SDS011;32338;50.430;6.806;2022-11-20T03:10:41;41.10;;;8.48;;
46613;SDS011;32338;50.430;6.806;2022-11-20T03:13:10;14.07;;;8.43;;
46613;SDS011;32338;50.430;6.806;2022-11-20T03:15:36;33.72;;;8.90;;
46613;SDS011;32338;50.430;6.806;2022-11-20T03:18:04;198.90;;;11.77;;
46613;SDS011;32338;50.430;6.806;2022-11-20T03:20:31;41.50;;;8.95;;
46613;SDS011;32338;50.430;6.806;2022-11-20T03:22:59;21.80;;;7.72;;
46613;SDS011;32338;50.430;6.806;2022-11-20T03:25:26;56.03;;;7.90;;
46613;SDS011;32338;50.430;6.806;2022-11-20T03:27:53;144.15;;;10.18;;
46613;SDS011;32338;50.430;6.806;2022-11-20T03:30:21;80.95;;;8.32;;
46613;SDS011;32338;50.430;6.806;2022-11-20T03:32:48;261.33;;;11.30;;
46613;SDS011;32338;50.430;6.806;2022-11-20T03:35:15;283.90;;;10.85;;
46613;SDS011;32338;50.430;6.806;2022-11-20T03:37:42;119.85;;;8.80;;
46613;SDS011;32338;50.430;6.806;2022-11-20T03:40:10;112.03;;;10.30;;
46613;SDS011;32338;50.430;6.806;2022-11-20T03:42:37;92.50;;;8.68;;
46613;SDS011;32338;50.430;6.806;2022-11-20T03:45:13;407.95;;;15.40;;
46613;SDS011;32338;50.430;6.806;2022-11-20T03:47:42;127.30;;;9.43;;
46613;SDS011;32338;50.430;6.806;2022-11-20T03:50:09;82.47;;;7.15;;
46613;SDS011;32338;50.430;6.806;2022-11-20T03:52:37;130.60;;;9.02;;
46613;SDS011;32338;50.430;6.806;2022-11-20T03:55:04;286.05;;;11.52;;
46613;SDS011;32338;50.430;6.806;2022-11-20T03:57:31;212.25;;;10.88;;
46613;SDS011;32338;50.430;6.806;2022-11-20T03:59:57;247.25;;;10.57;;
46613;SDS011;32338;50.430;6.806;2022-11-20T04:02:24;56.67;;;8.43;;
46613;SDS011;32338;50.430;6.806;2022-11-20T04:04:52;18.42;;;8.43;;
46613;SDS011;32338;50.430;6.806;2022-11-20T04:07:19;27.50;;;9.10;;
46613;SDS011;32338;50.430;6.806;2022-11-20T04:09:46;117.13;;;10.80;;
46613;SDS011;32338;50.430;6.806;2022-11-20T04:12:13;110.60;;;8.77;;
46613;SDS011;32338;50.430;6.806;2022-11-20T04:14:39;163.05;;;10.07;;
46613;SDS011;32338;50.430;6.806;2022-11-20T04:17:06;24.02;;;7.40;;
46613;SDS011;32338;50.430;6.806;2022-11-20T04:19:33;35.35;;;7.47;;
46613;SDS011;32338;50.430;6.806;2022-11-20T04:22:01;67.07;;;8.15;;
46613;SDS011;32338;50.430;6.806;2022-11-20T04:24:28;22.38;;;6.68;;
46613;SDS011;32338;50.430;6.806;2022-11-20T04:26:54;35.10;;;8.35;;
46613;SDS011;32338;50.430;6.806;2022-11-20T04:29:21;189.10;;;11.07;;
46613;SDS011;32338;50.430;6.806;2022-11-20T04:31:47;52.00;;;8.18;;
46613;SDS011;32338;50.430;6.806;2022-11-20T04:34:14;175.52;;;9.43;;
46613;SDS011;32338;50.430;6.806;2022-11-20T04:36:41;76.88;;;8.65;;
46613;SDS011;32338;50.430;6.806;2022-11-20T04:39:12;166.50;;;9.80;;
46613;SDS011;32338;50.430;6.806;2022-11-20T04:41:41;26.85;;;7.72;;
46613;SDS011;32338;50.430;6.806;2022-11-20T04:44:08;52.40;;;10.30;;
46613;SDS011;32338;50.430;6.806;2022-11-20T04:46:35;18.58;;;8.38;;
46613;SDS011;32338;50.430;6.806;2022-11-20T04:49:03;31.30;;;9.35;;
46613;SDS011;32338;50.430;6.806;2022-11-20T04:51:30;21.77;;;9.40;;
46613;SDS011;32338;50.430;6.806;2022-11-20T04:53:57;28.75;;;10.48;;
46613;SDS011;32338;50.430;6.806;2022-11-20T04:56:25;34.55;;;9.20;;
46613;SDS011;32338;50.430;6.806;2022-11-20T04:58:52;26.77;;;10.13;;
46613;SDS011;32338;50.430;6.806;2022-11-20T05:01:19;27.58;;;9.50;;
46613;SDS011;32338;50.430;6.806;2022-11-20T05:03:47;22.23;;;10.02;;
46613;SDS011;32338;50.430;6.806;2022-11-20T05:06:15;16.95;;;9.45;;
46613;SDS011;32338;50.430;6.806;2022-11-20T05:08:44;16.02;;;8.55;;
46613;SDS011;32338;50.430;6.806;2022-11-20T05:11:12;17.90;;;8.90;;
46613;SDS011;32338;50.430;6.806;2022-11-20T05:13:41;20.45;;;8.98;;
46613;SDS011;32338;50.430;6.806;2022-11-20T05:16:09;21.90;;;9.27;;
46613;SDS011;32338;50.430;6.806;2022-11-20T05:18:37;18.20;;;10.05;;
46613;SDS011;32338;50.430;6.806;2022-11-20T05:21:04;22.13;;;8.70;;
46613;SDS011;32338;50.430;6.806;2022-11-20T05:23:32;22.95;;;8.93;;
46613;SDS011;32338;50.430;6.806;2022-11-20T05:25:59;28.75;;;10.05;;
46613;SDS011;32338;50.430;6.806;2022-11-20T05:28:27;35.00;;;10.38;;
46613;SDS011;32338;50.430;6.806;2022-11-20T05:31:03;20.02;;;8.63;;
46613;SDS011;32338;50.430;6.806;2022-11-20T05:33:32;16.08;;;8.90;;
46613;SDS011;32338;50.430;6.806;2022-11-20T05:35:59;19.75;;;8.70;;
46613;SDS011;32338;50.430;6.806;2022-11-20T05:38:25;18.90;;;8.75;;
46613;SDS011;32338;50.430;6.806;2022-11-20T05:40:52;16.30;;;8.60;;
46613;SDS011;32338;50.430;6.806;2022-11-20T05:43:19;26.13;;;9.00;;
46613;SDS011;32338;50.430;6.806;2022-11-20T05:45:51;14.43;;;8.15;;
46613;SDS011;32338;50.430;6.806;2022-11-20T05:48:20;18.20;;;8.30;;
46613;SDS011;32338;50.430;6.806;2022-11-20T05:50:47;15.65;;;8.70;;
46613;SDS011;32338;50.430;6.806;2022-11-20T05:53:14;18.08;;;8.48;;
46613;SDS011;32338;50.430;6.806;2022-11-20T05:55:40;16.48;;;7.88;;
46613;SDS011;32338;50.430;6.806;2022-11-20T05:58:07;21.85;;;8.70;;
46613;SDS011;32338;50.430;6.806;2022-11-20T06:00:34;15.48;;;8.07;;
46613;SDS011;32338;50.430;6.806;2022-11-20T06:03:00;15.38;;;7.10;;
46613;SDS011;32338;50.430;6.806;2022-11-20T06:05:28;18.30;;;7.95;;
46613;SDS011;32338;50.430;6.806;2022-11-20T06:07:55;13.00;;;7.38;;
46613;SDS011;32338;50.430;6.806;2022-11-20T06:10:22;14.50;;;7.47;;
46613;SDS011;32338;50.430;6.806;2022-11-20T06:12:48;12.65;;;7.35;;
46613;SDS011;32338;50.430;6.806;2022-11-20T06:15:15;15.90;;;7.25;;
46613;SDS011;32338;50.430;6.806;2022-11-20T06:17:42;13.50;;;7.72;;
46613;SDS011;32338;50.430;6.806;2022-11-20T06:20:09;15.77;;;7.10;;
46613;SDS011;32338;50.430;6.806;2022-11-20T06:22:37;13.85;;;7.55;;
46613;SDS011;32338;50.430;6.806;2022-11-20T06:25:04;13.07;;;7.55;;
46613;SDS011;32338;50.430;6.806;2022-11-20T06:27:31;18.13;;;8.40;;
46613;SDS011;32338;50.430;6.806;2022-11-20T06:29:57;16.63;;;7.57;;
46613;SDS011;32338;50.430;6.806;2022-11-20T06:32:24;19.55;;;7.45;;
46613;SDS011;32338;50.430;6.806;2022-11-20T06:34:51;13.50;;;8.05;;
46613;SDS011;32338;50.430;6.806;2022-11-20T06:37:17;12.32;;;6.70;;
46613;SDS011;32338;50.430;6.806;2022-11-20T06:39:45;12.02;;;6.90;;
46613;SDS011;32338;50.430;6.806;2022-11-20T06:42:12;6.75;;;3.67;;
46613;SDS011;32338;50.430;6.806;2022-11-20T06:44:39;3.13;;;2.70;;
46613;SDS011;32338;50.430;6.806;2022-11-20T06:47:05;6.53;;;3.88;;
46613;SDS011;32338;50.430;6.806;2022-11-20T06:49:32;5.90;;;3.65;;
46613;SDS011;32338;50.430;6.806;2022-11-20T06:51:59;4.55;;;2.55;;
46613;SDS011;32338;50.430;6.806;2022-11-20T06:54:26;5.60;;;2.88;;
46613;SDS011;32338;50.430;6.806;2022-11-20T06:56:54;6.43;;;3.42;;
46613;SDS011;32338;50.430;6.806;2022-11-20T06:59:20;3.17;;;2.50;;
46613;SDS011;32338;50.430;6.806;2022-11-20T07:01:47;2.90;;;2.13;;
46613;SDS011;32338;50.430;6.806;2022-11-20T07:04:14;4.13;;;2.28;;
46613;SDS011;32338;50.430;6.806;2022-11-20T07:06:40;2.53;;;2.28;;
46613;SDS011;32338;50.430;6.806;2022-11-20T07:09:07;2.65;;;2.35;;
46613;SDS011;32338;50.430;6.806;2022-11-20T07:11:34;4.20;;;2.30;;
46613;SDS011;32338;50.430;6.806;2022-11-20T07:14:02;2.33;;;1.95;;
46613;SDS011;32338;50.430;6.806;2022-11-20T07:16:31;2.75;;;2.30;;
46613;SDS011;32338;50.430;6.806;2022-11-20T07:18:58;2.28;;;1.90;;
46613;SDS011;32338;50.430;6.806;2022-11-20T07:21:25;2.85;;;2.40;;
46613;SDS011;32338;50.430;6.806;2022-11-20T07:23:51;4.43;;;2.45;;
46613;SDS011;32338;50.430;6.806;2022-11-20T07:26:18;3.15;;;2.38;;
46613;SDS011;32338;50.430;6.806;2022-11-20T07:28:45;2.90;;;2.70;;
46613;SDS011;32338;50.430;6.806;2022-11-20T07:31:13;4.55;;;3.13;;
46613;SDS011;32338;50.430;6.806;2022-11-20T07:33:40;6.00;;;2.58;;
46613;SDS011;32338;50.430;6.806;2022-11-20T07:36:07;3.25;;;2.67;;
46613;SDS011;32338;50.430;6.806;2022-11-20T07:38:34;3.53;;;2.70;;
46613;SDS011;32338;50.430;6.806;2022-11-20T07:41:00;2.83;;;2.50;;
46613;SDS011;32338;50.430;6.806;2022-11-20T07:43:27;3.85;;;3.17;;
46613;SDS011;32338;50.430;6.806;2022-11-20T07:45:54;3.25;;;2.95;;
46613;SDS011;32338;50.430;6.806;2022-11-20T07:48:22;11.82;;;9.00;;
46613;SDS011;32338;50.430;6.806;2022-11-20T07:50:49;6.82;;;5.32;;
46613;SDS011;32338;50.430;6.806;2022-11-20T07:53:19;6.43;;;5.78;;
46613;SDS011;32338;50.430;6.806;2022-11-20T07:55:46;7.53;;;3.90;;
46613;SDS011;32338;50.430;6.806;2022-11-20T07:58:13;4.20;;;3.35;;
46613;SDS011;32338;50.430;6.806;2022-11-20T08:00:40;3.17;;;2.85;;
46613;SDS011;32338;50.430;6.806;2022-11-20T08:03:07;4.32;;;3.20;;
46613;SDS011;32338;50.430;6.806;2022-11-20T08:05:35;6.50;;;3.67;;
46613;SDS011;32338;50.430;6.806;2022-11-20T08:08:02;3.63;;;3.30;;
46613;SDS011;32338;50.430;6.806;2022-11-20T08:10:29;3.33;;;3.03;;
46613;SDS011;32338;50.430;6.806;2022-11-20T08:12:55;3.25;;;2.70;;
46613;SDS011;32338;50.430;6.806;2022-11-20T08:15:39;3.25;;;2.95;;
46613;SDS011;32338;50.430;6.806;2022-11-20T08:18:07;4.25;;;3.05;;
46613;SDS011;32338;50.430;6.806;2022-11-20T08:20:37;3.50;;;3.20;;
46613;SDS011;32338;50.430;6.806;2022-11-20T08:23:04;3.67;;;2.97;;
46613;SDS011;32338;50.430;6.806;2022-11-20T08:25:32;3.60;;;3.30;;
46613;SDS011;32338;50.430;6.806;2022-11-20T08:28:00;5.22;;;3.40;;
46613;SDS011;32338;50.430;6.806;2022-11-20T08:30:30;5.13;;;3.33;;
46613;SDS011;32338;50.430;6.806;2022-11-20T08:33:00;6.60;;;4.03;;
46613;SDS011;32338;50.430;6.806;2022-11-20T08:35:27;4.10;;;3.67;;
46613;SDS011;32338;50.430;6.806;2022-11-20T08:37:55;4.70;;;4.00;;
46613;SDS011;32338;50.430;6.806;2022-11-20T08:40:22;5.85;;;4.03;;
46613;SDS011;32338;50.430;6.806;2022-11-20T08:42:49;5.85;;;5.07;;
46613;SDS011;32338;50.430;6.806;2022-11-20T08:45:17;7.18;;;6.00;;
46613;SDS011;32338;50.430;6.806;2022-11-20T08:47:45;7.13;;;5.45;;
46613;SDS011;32338;50.430;6.806;2022-11-20T08:50:12;6.88;;;5.50;;
46613;SDS011;32338;50.430;6.806;2022-11-20T08:52:40;8.30;;;6.20;;
46613;SDS011;32338;50.430;6.806;2022-11-20T08:55:09;12.98;;;6.07;;
46613;SDS011;32338;50.430;6.806;2022-11-20T08:57:36;11.35;;;6.63;;
46613;SDS011;32338;50.430;6.806;2022-11-20T09:00:04;6.72;;;5.95;;
46613;SDS011;32338;50.430;6.806;2022-11-20T09:02:32;9.60;;;6.20;;
46613;SDS011;32338;50.430;6.806;2022-11-20T09:04:59;7.00;;;6.15;;
46613;SDS011;32338;50.430;6.806;2022-11-20T09:07:27;8.18;;;5.68;;
46613;SDS011;32338;50.430;6.806;2022-11-20T09:09:54;9.23;;;6.63;;
46613;SDS011;32338;50.430;6.806;2022-11-20T09:12:22;10.45;;;7.05;;
46613;SDS011;32338;50.430;6.806;2022-11-20T09:14:48;9.27;;;6.55;;
46613;SDS011;32338;50.430;6.806;2022-11-20T09:17:15;8.93;;;6.65;;
46613;SDS011;32338;50.430;6.806;2022-11-20T09:19:42;15.98;;;7.78;;
46613;SDS011;32338;50.430;6.806;2022-11-20T09:22:08;10.85;;;7.40;;
46613;SDS011;32338;50.430;6.806;2022-11-20T09:24:35;10.95;;;7.20;;
46613;SDS011;32338;50.430;6.806;2022-11-20T09:27:03;10.95;;;7.85;;
46613;SDS011;32338;50.430;6.806;2022-11-20T09:29:32;11.63;;;7.80;;
46613;SDS011;32338;50.430;6.806;2022-11-20T09:31:58;12.20;;;7.57;;
46613;SDS011;32338;50.430;6.806;2022-11-20T09:34:25;22.38;;;8.55;;
46613;SDS011;32338;50.430;6.806;2022-11-20T09:36:51;13.70;;;9.15;;
46613;SDS011;32338;50.430;6.806;2022-11-20T09:39:18;15.02;;;9.10;;
46613;SDS011;32338;50.430;6.806;2022-11-20T09:41:56;14.35;;;10.05;;
46613;SDS011;32338;50.430;6.806;2022-11-20T09:47:30;19.17;;;10.48;;
46613;SDS011;32338;50.430;6.806;2022-11-20T09:50:14;21.23;;;12.60;;
46613;SDS011;32338;50.430;6.806;2022-11-20T09:52:52;19.20;;;11.88;;
46613;SDS011;32338;50.430;6.806;2022-11-20T09:55:30;22.45;;;12.48;;
46613;SDS011;32338;50.430;6.806;2022-11-20T09:57:57;21.33;;;12.77;;
46613;SDS011;32338;50.430;6.806;2022-11-20T10:00:27;23.02;;;12.57;;
46613;SDS011;32338;50.430;6.806;2022-11-20T10:02:55;21.67;;;12.07;;
46613;SDS011;32338;50.430;6.806;2022-11-20T10:05:28;24.45;;;13.55;;
46613;SDS011;32338;50.430;6.806;2022-11-20T10:08:01;22.75;;;12.50;;
46613;SDS011;32338;50.430;6.806;2022-11-20T10:10:40;22.13;;;13.00;;
46613;SDS011;32338;50.430;6.806;2022-11-20T10:13:14;21.05;;;12.55;;
46613;SDS011;32338;50.430;6.806;2022-11-20T10:15:55;24.20;;;12.77;;
46613;SDS011;32338;50.430;6.806;2022-11-20T10:18:33;19.13;;;11.90;;
46613;SDS011;32338;50.430;6.806;2022-11-20T10:21:11;21.15;;;11.48;;
46613;SDS011;32338;50.430;6.806;2022-11-20T10:23:56;20.42;;;11.55;;
46613;SDS011;32338;50.430;6.806;2022-11-20T10:26:48;21.67;;;11.82;;
46613;SDS011;32338;50.430;6.806;2022-11-20T10:29:26;20.33;;;12.00;;
46613;SDS011;32338;50.430;6.806;2022-11-20T10:32:01;16.10;;;9.63;;
46613;SDS011;32338;50.430;6.806;2022-11-20T10:34:31;21.70;;;11.07;;
46613;SDS011;32338;50.430;6.806;2022-11-20T10:37:14;13.77;;;9.57;;
46613;SDS011;32338;50.430;6.806;2022-11-20T10:39:47;20.13;;;11.45;;
46613;SDS011;32338;50.430;6.806;2022-11-20T10:44:52;19.45;;;9.95;;
46613;SDS011;32338;50.430;6.806;2022-11-20T10:47:30;20.10;;;10.77;;
46613;SDS011;32338;50.430;6.806;2022-11-20T10:49:58;18.83;;;11.02;;
46613;SDS011;32338;50.430;6.806;2022-11-20T10:52:31;18.52;;;10.65;;
46613;SDS011;32338;50.430;6.806;2022-11-20T10:55:06;19.92;;;10.82;;
46613;SDS011;32338;50.430;6.806;2022-11-20T10:57:51;19.97;;;11.27;;
46613;SDS011;32338;50.430;6.806;2022-11-20T11:00:21;23.15;;;10.77;;
46613;SDS011;32338;50.430;6.806;2022-11-20T11:02:49;23.73;;;11.35;;
46613;SDS011;32338;50.430;6.806;2022-11-20T11:05:21;20.38;;;10.55;;
46613;SDS011;32338;50.430;6.806;2022-11-20T11:07:54;23.00;;;11.25;;
46613;SDS011;32338;50.430;6.806;2022-11-20T11:10:24;25.88;;;11.27;;
46613;SDS011;32338;50.430;6.806;2022-11-20T11:12:58;17.17;;;10.43;;
46613;SDS011;32338;50.430;6.806;2022-11-20T11:15:25;19.60;;;10.52;;
46613;SDS011;32338;50.430;6.806;2022-11-20T11:17:56;23.70;;;11.57;;
46613;SDS011;32338;50.430;6.806;2022-11-20T11:20:24;23.88;;;11.00;;
46613;SDS011;32338;50.430;6.806;2022-11-20T11:22:52;20.15;;;10.63;;
46613;SDS011;32338;50.430;6.806;2022-11-20T11:25:24;20.05;;;10.93;;
46613;SDS011;32338;50.430;6.806;2022-11-20T11:27:53;25.75;;;10.88;;
46613;SDS011;32338;50.430;6.806;2022-11-20T11:30:27;17.60;;;9.15;;
46613;SDS011;32338;50.430;6.806;2022-11-20T11:33:09;22.85;;;10.13;;
46613;SDS011;32338;50.430;6.806;2022-11-20T11:35:39;18.85;;;9.50;;
46613;SDS011;32338;50.430;6.806;2022-11-20T11:38:11;19.73;;;9.60;;
46613;SDS011;32338;50.430;6.806;2022-11-20T11:40:41;19.38;;;8.95;;
46613;SDS011;32338;50.430;6.806;2022-11-20T11:43:16;15.55;;;9.10;;
46613;SDS011;32338;50.430;6.806;2022-11-20T11:46:06;17.48;;;9.57;;
46613;SDS011;32338;50.430;6.806;2022-11-20T11:48:56;14.50;;;8.93;;
46613;SDS011;32338;50.430;6.806;2022-11-20T11:51:24;17.17;;;9.23;;
46613;SDS011;32338;50.430;6.806;2022-11-20T11:53:55;18.38;;;9.25;;
46613;SDS011;32338;50.430;6.806;2022-11-20T11:56:24;20.60;;;8.90;;
46613;SDS011;32338;50.430;6.806;2022-11-20T11:58:53;18.90;;;8.80;;
46613;SDS011;32338;50.430;6.806;2022-11-20T12:01:27;13.02;;;7.75;;
46613;SDS011;32338;50.430;6.806;2022-11-20T12:04:02;13.40;;;7.25;;
46613;SDS011;32338;50.430;6.806;2022-11-20T12:06:34;16.20;;;8.45;;
46613;SDS011;32338;50.430;6.806;2022-11-20T12:09:07;14.95;;;7.50;;
46613;SDS011;32338;50.430;6.806;2022-11-20T12:11:37;13.65;;;7.82;;
46613;SDS011;32338;50.430;6.806;2022-11-20T12:14:11;13.65;;;6.47;;
46613;SDS011;32338;50.430;6.806;2022-11-20T12:16:44;13.02;;;6.50;;
46613;SDS011;32338;50.430;6.806;2022-11-20T12:19:13;10.25;;;4.97;;
46613;SDS011;32338;50.430;6.806;2022-11-20T12:21:43;9.77;;;5.15;;
46613;SDS011;32338;50.430;6.806;2022-11-20T12:24:25;10.32;;;4.60;;
46613;SDS011;32338;50.430;6.806;2022-11-20T12:27:08;9.60;;;4.25;;
46613;SDS011;32338;50.430;6.806;2022-11-20T12:29:53;6.00;;;3.17;;
46613;SDS011;32338;50.430;6.806;2022-11-20T12:35:41;5.78;;;1.85;;
46613;SDS011;32338;50.430;6.806;2022-11-20T12:38:21;4.03;;;1.88;;
46613;SDS011;32338;50.430;6.806;2022-11-20T12:41:02;2.97;;;1.48;;
46613;SDS011;32338;50.430;6.806;2022-11-20T12:44:01;5.88;;;1.92;;
46613;SDS011;32338;50.430;6.806;2022-11-20T12:46:55;4.80;;;1.65;;
46613;SDS011;32338;50.430;6.806;2022-11-20T12:49:34;5.63;;;1.35;;
46613;SDS011;32338;50.430;6.806;2022-11-20T12:52:13;5.70;;;1.48;;
46613;SDS011;32338;50.430;6.806;2022-11-20T12:57:42;4.90;;;1.48;;
46613;SDS011;32338;50.430;6.806;2022-11-20T13:00:16;7.72;;;1.20;;
46613;SDS011;32338;50.430;6.806;2022-11-20T13:02:56;5.78;;;1.40;;
46613;SDS011;32338;50.430;6.806;2022-11-20T13:05:35;6.82;;;1.27;;
46613;SDS011;32338;50.430;6.806;2022-11-20T13:08:08;6.05;;;1.30;;
46613;SDS011;32338;50.430;6.806;2022-11-20T13:10:46;5.03;;;1.27;;
46613;SDS011;32338;50.430;6.806;2022-11-20T13:13:17;2.65;;;1.42;;
46613;SDS011;32338;50.430;6.806;2022-11-20T13:18:22;7.50;;;1.20;;
46613;SDS011;32338;50.430;6.806;2022-11-20T13:20:58;4.13;;;1.20;;
46613;SDS011;32338;50.430;6.806;2022-11-20T13:26:03;5.53;;;1.50;;
46613;SDS011;32338;50.430;6.806;2022-11-20T13:28:42;5.47;;;1.40;;
46613;SDS011;32338;50.430;6.806;2022-11-20T13:31:09;5.20;;;1.25;;
46613;SDS011;32338;50.430;6.806;2022-11-20T13:33:54;10.02;;;1.17;;
46613;SDS011;32338;50.430;6.806;2022-11-20T13:36:22;11.55;;;1.90;;
46613;SDS011;32338;50.430;6.806;2022-11-20T13:38:53;9.88;;;1.30;;
46613;SDS011;32338;50.430;6.806;2022-11-20T13:41:24;4.72;;;1.35;;
46613;SDS011;32338;50.430;6.806;2022-11-20T13:43:57;10.13;;;1.45;;
46613;SDS011;32338;50.430;6.806;2022-11-20T13:46:35;3.95;;;1.30;;
46613;SDS011;32338;50.430;6.806;2022-11-20T13:49:08;2.28;;;1.13;;
46613;SDS011;32338;50.430;6.806;2022-11-20T13:51:39;4.80;;;1.40;;
46613;SDS011;32338;50.430;6.806;2022-11-20T13:57:33;3.53;;;1.10;;
46613;SDS011;32338;50.430;6.806;2022-11-20T14:00:10;5.10;;;0.85;;
46613;SDS011;32338;50.430;6.806;2022-11-20T14:02:39;3.50;;;1.10;;
46613;SDS011;32338;50.430;6.806;2022-11-20T14:05:11;5.57;;;1.10;;
46613;SDS011;32338;50.430;6.806;2022-11-20T14:07:45;4.78;;;1.15;;
46613;SDS011;32338;50.430;6.806;2022-11-20T14:10:21;4.00;;;0.90;;
46613;SDS011;32338;50.430;6.806;2022-11-20T14:12:50;7.43;;;1.13;;
46613;SDS011;32338;50.430;6.806;2022-11-20T14:15:27;6.75;;;1.30;;
46613;SDS011;32338;50.430;6.806;2022-11-20T14:17:56;3.00;;;0.90;;
46613;SDS011;32338;50.430;6.806;2022-11-20T14:20:23;4.72;;;0.88;;
46613;SDS011;32338;50.430;6.806;2022-11-20T14:22:53;4.22;;;1.38;;
46613;SDS011;32338;50.430;6.806;2022-11-20T14:25:21;3.40;;;0.90;;
46613;SDS011;32338;50.430;6.806;2022-11-20T14:27:53;5.07;;;1.10;;
46613;SDS011;32338;50.430;6.806;2022-11-20T14:30:22;6.65;;;1.27;;
46613;SDS011;32338;50.430;6.806;2022-11-20T14:32:51;4.25;;;0.80;;
46613;SDS011;32338;50.430;6.806;2022-11-20T14:35:21;4.38;;;1.35;;
46613;SDS011;32338;50.430;6.806;2022-11-20T14:37:50;3.05;;;1.00;;
46613;SDS011;32338;50.430;6.806;2022-11-20T14:40:27;9.88;;;1.10;;
46613;SDS011;32338;50.430;6.806;2022-11-20T14:42:58;4.40;;;1.30;;
46613;SDS011;32338;50.430;6.806;2022-11-20T14:45:28;4.00;;;1.00;;
46613;SDS011;32338;50.430;6.806;2022-11-20T14:47:56;5.93;;;1.48;;
46613;SDS011;32338;50.430;6.806;2022-11-20T14:50:26;3.55;;;0.90;;
46613;SDS011;32338;50.430;6.806;2022-11-20T14:52:54;4.97;;;1.10;;
46613;SDS011;32338;50.430;6.806;2022-11-20T14:55:26;3.95;;;1.00;;
46613;SDS011;32338;50.430;6.806;2022-11-20T14:57:59;5.20;;;1.10;;
46613;SDS011;32338;50.430;6.806;2022-11-20T15:00:28;6.55;;;1.30;;
46613;SDS011;32338;50.430;6.806;2022-11-20T15:02:59;5.03;;;1.33;;
46613;SDS011;32338;50.430;6.806;2022-11-20T15:05:43;3.13;;;0.90;;
46613;SDS011;32338;50.430;6.806;2022-11-20T15:08:11;4.97;;;1.25;;
46613;SDS011;32338;50.430;6.806;2022-11-20T15:10:44;15.05;;;1.45;;